sensor_id;sensor_type;location;lat;lon;timestamp;temperature;humidity
76172;DHT22;64929;51.178;4.138;2023-12-20T00:00:26;8.20;99.90
76172;DHT22;64929;51.178;4.138;2023-12-20T00:02:51;8.30;99.90
76172;DHT22;64929;51.178;4.138;2023-12-20T00:05:17;8.10;99.90
76172;DHT22;64929;51.178;4.138;2023-12-20T00:07:43;8.30;99.90
76172;DHT22;64929;51.178;4.138;2023-12-20T00:10:09;8.30;99.90
76172;DHT22;64929;51.178;4.138;2023-12-20T00:12:35;8.30;99.90
76172;DHT22;64929;51.178;4.138;2023-12-20T00:15:01;8.30;99.90
76172;DHT22;64929;51.178;4.138;2023-12-20T00:17:27;8.40;99.90
76172;DHT22;64929;51.178;4.138;2023-12-20T00:19:52;8.20;99.90
76172;DHT22;64929;51.178;4.138;2023-12-20T00:22:18;8.20;99.90
76172;DHT22;64929;51.178;4.138;2023-12-20T00:24:43;8.30;99.90
76172;DHT22;64929;51.178;4.138;2023-12-20T00:27:09;8.10;99.90
76172;DHT22;64929;51.178;4.138;2023-12-20T00:29:35;8.00;99.90
76172;DHT22;64929;51.178;4.138;2023-12-20T00:32:01;8.10;99.90
76172;DHT22;64929;51.178;4.138;2023-12-20T00:34:27;8.00;99.90
76172;DHT22;64929;51.178;4.138;2023-12-20T00:36:52;8.00;99.90
76172;DHT22;64929;51.178;4.138;2023-12-20T00:39:18;7.90;99.90
76172;DHT22;64929;51.178;4.138;2023-12-20T00:41:43;8.00;99.90
76172;DHT22;64929;51.178;4.138;2023-12-20T00:44:09;8.00;99.90
76172;DHT22;64929;51.178;4.138;2023-12-20T00:46:35;8.10;99.90
76172;DHT22;64929;51.178;4.138;2023-12-20T00:49:00;8.20;99.90
76172;DHT22;64929;51.178;4.138;2023-12-20T00:51:26;8.20;99.90
76172;DHT22;64929;51.178;4.138;2023-12-20T00:53:52;8.20;99.90
76172;DHT22;64929;51.178;4.138;2023-12-20T00:56:20;8.00;99.90
76172;DHT22;64929;51.178;4.138;2023-12-20T00:58:46;8.10;99.90
76172;DHT22;64929;51.178;4.138;2023-12-20T01:01:12;8.00;99.90
76172;DHT22;64929;51.178;4.138;2023-12-20T01:03:38;8.10;99.90
76172;DHT22;64929;51.178;4.138;2023-12-20T01:06:04;8.10;99.90
76172;DHT22;64929;51.178;4.138;2023-12-20T01:08:30;8.10;99.90
76172;DHT22;64929;51.178;4.138;2023-12-20T01:10:56;8.10;99.90
76172;DHT22;64929;51.178;4.138;2023-12-20T01:13:22;8.00;99.90
76172;DHT22;64929;51.178;4.138;2023-12-20T01:15:47;8.00;99.90
76172;DHT22;64929;51.178;4.138;2023-12-20T01:18:14;8.10;99.90
76172;DHT22;64929;51.178;4.138;2023-12-20T01:20:40;8.20;99.90
76172;DHT22;64929;51.178;4.138;2023-12-20T01:23:05;8.30;99.90
76172;DHT22;64929;51.178;4.138;2023-12-20T01:25:31;8.20;99.90
76172;DHT22;64929;51.178;4.138;2023-12-20T01:27:57;8.30;99.90
76172;DHT22;64929;51.178;4.138;2023-12-20T01:30:22;8.20;99.90
76172;DHT22;64929;51.178;4.138;2023-12-20T01:32:48;8.20;99.90
76172;DHT22;64929;51.178;4.138;2023-12-20T01:35:14;8.30;99.90
76172;DHT22;64929;51.178;4.138;2023-12-20T01:37:40;8.40;99.90
76172;DHT22;64929;51.178;4.138;2023-12-20T01:40:06;8.40;99.90
76172;DHT22;64929;51.178;4.138;2023-12-20T01:42:31;8.30;99.90
76172;DHT22;64929;51.178;4.138;2023-12-20T01:44:57;8.30;99.90
76172;DHT22;64929;51.178;4.138;2023-12-20T01:47:23;8.20;99.90
76172;DHT22;64929;51.178;4.138;2023-12-20T01:49:49;8.00;99.90
76172;DHT22;64929;51.178;4.138;2023-12-20T01:52:16;8.00;99.90
76172;DHT22;64929;51.178;4.138;2023-12-20T01:54:42;7.90;99.90
76172;DHT22;64929;51.178;4.138;2023-12-20T01:57:08;7.90;99.90
76172;DHT22;64929;51.178;4.138;2023-12-20T01:59:35;7.80;99.90
76172;DHT22;64929;51.178;4.138;2023-12-20T02:02:03;7.70;99.90
76172;DHT22;64929;51.178;4.138;2023-12-20T02:04:29;7.80;99.90
76172;DHT22;64929;51.178;4.138;2023-12-20T02:06:55;7.70;99.90
76172;DHT22;64929;51.178;4.138;2023-12-20T02:09:22;7.70;99.90
76172;DHT22;64929;51.178;4.138;2023-12-20T02:11:49;7.80;99.90
76172;DHT22;64929;51.178;4.138;2023-12-20T02:14:14;7.80;99.90
76172;DHT22;64929;51.178;4.138;2023-12-20T02:16:40;7.70;99.90
76172;DHT22;64929;51.178;4.138;2023-12-20T02:19:13;7.60;99.90
76172;DHT22;64929;51.178;4.138;2023-12-20T02:21:39;7.50;99.90
76172;DHT22;64929;51.178;4.138;2023-12-20T02:24:05;7.50;99.90
76172;DHT22;64929;51.178;4.138;2023-12-20T02:26:32;7.50;99.90
76172;DHT22;64929;51.178;4.138;2023-12-20T02:28:59;7.50;99.90
76172;DHT22;64929;51.178;4.138;2023-12-20T02:31:25;7.50;99.90
76172;DHT22;64929;51.178;4.138;2023-12-20T02:33:51;7.40;99.90
76172;DHT22;64929;51.178;4.138;2023-12-20T02:36:16;7.40;99.90
76172;DHT22;64929;51.178;4.138;2023-12-20T02:38:42;7.40;99.90
76172;DHT22;64929;51.178;4.138;2023-12-20T02:41:08;7.50;99.90
76172;DHT22;64929;51.178;4.138;2023-12-20T02:43:33;7.40;99.90
76172;DHT22;64929;51.178;4.138;2023-12-20T02:45:59;7.40;99.90
76172;DHT22;64929;51.178;4.138;2023-12-20T02:48:25;7.50;99.90
76172;DHT22;64929;51.178;4.138;2023-12-20T02:50:51;7.50;99.90
76172;DHT22;64929;51.178;4.138;2023-12-20T02:53:16;7.60;99.90
76172;DHT22;64929;51.178;4.138;2023-12-20T02:55:42;7.50;99.90
76172;DHT22;64929;51.178;4.138;2023-12-20T02:58:08;7.50;99.90
76172;DHT22;64929;51.178;4.138;2023-12-20T03:00:33;7.50;99.90
76172;DHT22;64929;51.178;4.138;2023-12-20T03:02:59;7.50;99.90
76172;DHT22;64929;51.178;4.138;2023-12-20T03:05:25;7.50;99.90
76172;DHT22;64929;51.178;4.138;2023-12-20T03:07:51;7.50;99.90
76172;DHT22;64929;51.178;4.138;2023-12-20T03:10:18;7.60;99.90
76172;DHT22;64929;51.178;4.138;2023-12-20T03:12:44;7.60;99.90
76172;DHT22;64929;51.178;4.138;2023-12-20T03:15:10;7.70;99.90
76172;DHT22;64929;51.178;4.138;2023-12-20T03:17:36;7.60;99.90
76172;DHT22;64929;51.178;4.138;2023-12-20T03:20:02;7.40;99.90
76172;DHT22;64929;51.178;4.138;2023-12-20T03:22:27;7.60;99.90
76172;DHT22;64929;51.178;4.138;2023-12-20T03:24:53;7.50;99.90
76172;DHT22;64929;51.178;4.138;2023-12-20T03:27:19;7.60;99.90
76172;DHT22;64929;51.178;4.138;2023-12-20T03:29:44;7.60;99.90
76172;DHT22;64929;51.178;4.138;2023-12-20T03:32:10;7.60;99.90
76172;DHT22;64929;51.178;4.138;2023-12-20T03:34:36;7.60;99.90
76172;DHT22;64929;51.178;4.138;2023-12-20T03:37:02;7.80;99.90
76172;DHT22;64929;51.178;4.138;2023-12-20T03:39:27;7.60;99.90
76172;DHT22;64929;51.178;4.138;2023-12-20T03:41:53;7.70;99.90
76172;DHT22;64929;51.178;4.138;2023-12-20T03:44:19;7.60;99.90
76172;DHT22;64929;51.178;4.138;2023-12-20T03:46:45;7.60;99.90
76172;DHT22;64929;51.178;4.138;2023-12-20T03:49:11;7.70;99.90
76172;DHT22;64929;51.178;4.138;2023-12-20T03:51:37;7.60;99.90
76172;DHT22;64929;51.178;4.138;2023-12-20T03:54:03;7.50;99.90
76172;DHT22;64929;51.178;4.138;2023-12-20T03:56:29;7.70;99.90
76172;DHT22;64929;51.178;4.138;2023-12-20T03:58:54;7.70;99.90
76172;DHT22;64929;51.178;4.138;2023-12-20T04:01:20;7.60;99.90
76172;DHT22;64929;51.178;4.138;2023-12-20T04:03:46;7.60;99.90
76172;DHT22;64929;51.178;4.138;2023-12-20T04:06:19;7.70;99.90
76172;DHT22;64929;51.178;4.138;2023-12-20T04:08:44;7.70;99.90
76172;DHT22;64929;51.178;4.138;2023-12-20T04:11:10;7.70;99.90
76172;DHT22;64929;51.178;4.138;2023-12-20T04:13:36;7.60;99.90
76172;DHT22;64929;51.178;4.138;2023-12-20T04:16:02;7.50;99.90
76172;DHT22;64929;51.178;4.138;2023-12-20T04:18:27;7.60;99.90
76172;DHT22;64929;51.178;4.138;2023-12-20T04:20:54;7.60;99.90
76172;DHT22;64929;51.178;4.138;2023-12-20T04:23:19;7.60;99.90
76172;DHT22;64929;51.178;4.138;2023-12-20T04:25:45;7.60;99.90
76172;DHT22;64929;51.178;4.138;2023-12-20T04:28:11;7.50;99.90
76172;DHT22;64929;51.178;4.138;2023-12-20T04:30:36;7.50;99.90
76172;DHT22;64929;51.178;4.138;2023-12-20T04:33:02;7.60;99.90
76172;DHT22;64929;51.178;4.138;2023-12-20T04:35:28;7.50;99.90
76172;DHT22;64929;51.178;4.138;2023-12-20T04:37:53;7.50;99.90
76172;DHT22;64929;51.178;4.138;2023-12-20T04:40:19;7.60;99.90
76172;DHT22;64929;51.178;4.138;2023-12-20T04:42:45;7.80;99.90
76172;DHT22;64929;51.178;4.138;2023-12-20T04:45:11;7.60;99.90
76172;DHT22;64929;51.178;4.138;2023-12-20T04:47:39;7.70;99.90
76172;DHT22;64929;51.178;4.138;2023-12-20T04:50:05;7.70;99.90
76172;DHT22;64929;51.178;4.138;2023-12-20T04:52:31;7.60;99.90
76172;DHT22;64929;51.178;4.138;2023-12-20T04:54:56;7.50;99.90
76172;DHT22;64929;51.178;4.138;2023-12-20T04:57:22;7.50;99.90
76172;DHT22;64929;51.178;4.138;2023-12-20T04:59:48;7.50;99.90
76172;DHT22;64929;51.178;4.138;2023-12-20T05:02:13;7.70;99.90
76172;DHT22;64929;51.178;4.138;2023-12-20T05:04:39;7.60;99.90
76172;DHT22;64929;51.178;4.138;2023-12-20T05:07:05;7.50;99.90
76172;DHT22;64929;51.178;4.138;2023-12-20T05:09:31;7.50;99.90
76172;DHT22;64929;51.178;4.138;2023-12-20T05:11:57;7.40;99.90
76172;DHT22;64929;51.178;4.138;2023-12-20T05:14:23;7.50;99.90
76172;DHT22;64929;51.178;4.138;2023-12-20T05:16:48;7.60;99.90
76172;DHT22;64929;51.178;4.138;2023-12-20T05:19:14;7.40;99.90
76172;DHT22;64929;51.178;4.138;2023-12-20T05:21:40;7.50;99.90
76172;DHT22;64929;51.178;4.138;2023-12-20T05:24:05;7.50;99.90
76172;DHT22;64929;51.178;4.138;2023-12-20T05:26:31;7.50;99.90
76172;DHT22;64929;51.178;4.138;2023-12-20T05:28:57;7.50;99.90
76172;DHT22;64929;51.178;4.138;2023-12-20T05:31:22;7.40;99.90
76172;DHT22;64929;51.178;4.138;2023-12-20T05:33:48;7.30;99.90
76172;DHT22;64929;51.178;4.138;2023-12-20T05:36:13;7.40;99.90
76172;DHT22;64929;51.178;4.138;2023-12-20T05:38:40;7.40;99.90
76172;DHT22;64929;51.178;4.138;2023-12-20T05:41:06;7.50;99.90
76172;DHT22;64929;51.178;4.138;2023-12-20T05:43:32;7.50;99.90
76172;DHT22;64929;51.178;4.138;2023-12-20T05:45:58;7.50;99.90
76172;DHT22;64929;51.178;4.138;2023-12-20T05:48:24;7.60;99.90
76172;DHT22;64929;51.178;4.138;2023-12-20T05:50:49;7.60;99.90
76172;DHT22;64929;51.178;4.138;2023-12-20T05:53:15;7.70;99.90
76172;DHT22;64929;51.178;4.138;2023-12-20T05:55:41;7.70;99.90
76172;DHT22;64929;51.178;4.138;2023-12-20T05:58:06;7.70;99.90
76172;DHT22;64929;51.178;4.138;2023-12-20T06:00:32;7.70;99.90
76172;DHT22;64929;51.178;4.138;2023-12-20T06:02:58;7.70;99.90
76172;DHT22;64929;51.178;4.138;2023-12-20T06:05:23;7.80;99.90
76172;DHT22;64929;51.178;4.138;2023-12-20T06:07:49;7.80;99.90
76172;DHT22;64929;51.178;4.138;2023-12-20T06:10:16;7.80;99.90
76172;DHT22;64929;51.178;4.138;2023-12-20T06:12:42;7.90;99.90
76172;DHT22;64929;51.178;4.138;2023-12-20T06:15:08;7.90;99.90
76172;DHT22;64929;51.178;4.138;2023-12-20T06:17:33;7.80;99.90
76172;DHT22;64929;51.178;4.138;2023-12-20T06:20:00;7.80;99.90
76172;DHT22;64929;51.178;4.138;2023-12-20T06:22:26;7.90;99.90
76172;DHT22;64929;51.178;4.138;2023-12-20T06:24:52;7.90;99.90
76172;DHT22;64929;51.178;4.138;2023-12-20T06:27:17;7.80;99.90
76172;DHT22;64929;51.178;4.138;2023-12-20T06:29:43;7.60;99.90
76172;DHT22;64929;51.178;4.138;2023-12-20T06:32:10;7.50;99.90
76172;DHT22;64929;51.178;4.138;2023-12-20T06:34:36;7.50;99.90
76172;DHT22;64929;51.178;4.138;2023-12-20T06:37:02;7.30;99.90
76172;DHT22;64929;51.178;4.138;2023-12-20T06:39:27;7.40;99.90
76172;DHT22;64929;51.178;4.138;2023-12-20T06:41:54;7.30;99.90
76172;DHT22;64929;51.178;4.138;2023-12-20T06:44:20;7.30;99.90
76172;DHT22;64929;51.178;4.138;2023-12-20T06:46:46;7.30;99.90
76172;DHT22;64929;51.178;4.138;2023-12-20T06:49:12;7.20;99.90
76172;DHT22;64929;51.178;4.138;2023-12-20T06:51:37;7.30;99.90
76172;DHT22;64929;51.178;4.138;2023-12-20T06:54:03;7.20;99.90
76172;DHT22;64929;51.178;4.138;2023-12-20T06:56:29;7.20;99.90
76172;DHT22;64929;51.178;4.138;2023-12-20T06:58:55;7.20;99.90
76172;DHT22;64929;51.178;4.138;2023-12-20T07:01:20;7.20;99.90
76172;DHT22;64929;51.178;4.138;2023-12-20T07:03:46;7.30;99.90
76172;DHT22;64929;51.178;4.138;2023-12-20T07:06:12;7.30;99.90
76172;DHT22;64929;51.178;4.138;2023-12-20T07:08:40;7.20;99.90
76172;DHT22;64929;51.178;4.138;2023-12-20T07:11:05;7.10;99.90
76172;DHT22;64929;51.178;4.138;2023-12-20T07:13:31;7.10;99.90
76172;DHT22;64929;51.178;4.138;2023-12-20T07:15:57;7.00;99.90
76172;DHT22;64929;51.178;4.138;2023-12-20T07:18:22;7.20;99.90
76172;DHT22;64929;51.178;4.138;2023-12-20T07:20:48;7.10;99.90
76172;DHT22;64929;51.178;4.138;2023-12-20T07:23:14;7.10;99.90
76172;DHT22;64929;51.178;4.138;2023-12-20T07:25:39;7.10;99.90
76172;DHT22;64929;51.178;4.138;2023-12-20T07:28:05;7.10;99.90
76172;DHT22;64929;51.178;4.138;2023-12-20T07:30:31;7.00;99.90
76172;DHT22;64929;51.178;4.138;2023-12-20T07:32:57;6.80;99.90
76172;DHT22;64929;51.178;4.138;2023-12-20T07:35:25;6.80;99.90
76172;DHT22;64929;51.178;4.138;2023-12-20T07:37:51;6.90;99.90
76172;DHT22;64929;51.178;4.138;2023-12-20T07:40:17;6.90;99.90
76172;DHT22;64929;51.178;4.138;2023-12-20T07:42:42;6.90;99.90
76172;DHT22;64929;51.178;4.138;2023-12-20T07:45:08;7.00;99.90
76172;DHT22;64929;51.178;4.138;2023-12-20T07:47:36;6.90;99.90
76172;DHT22;64929;51.178;4.138;2023-12-20T07:50:01;6.90;99.90
76172;DHT22;64929;51.178;4.138;2023-12-20T07:52:29;6.90;99.90
76172;DHT22;64929;51.178;4.138;2023-12-20T07:54:54;7.00;99.90
76172;DHT22;64929;51.178;4.138;2023-12-20T07:57:21;7.00;99.90
76172;DHT22;64929;51.178;4.138;2023-12-20T07:59:47;7.10;99.90
76172;DHT22;64929;51.178;4.138;2023-12-20T08:02:12;7.20;99.90
76172;DHT22;64929;51.178;4.138;2023-12-20T08:04:38;7.20;99.90
76172;DHT22;64929;51.178;4.138;2023-12-20T08:07:04;7.20;99.90
76172;DHT22;64929;51.178;4.138;2023-12-20T08:09:29;7.10;99.90
76172;DHT22;64929;51.178;4.138;2023-12-20T08:11:56;7.10;99.90
76172;DHT22;64929;51.178;4.138;2023-12-20T08:14:25;7.20;99.90
76172;DHT22;64929;51.178;4.138;2023-12-20T08:16:50;7.20;99.90
76172;DHT22;64929;51.178;4.138;2023-12-20T08:19:16;7.30;99.90
76172;DHT22;64929;51.178;4.138;2023-12-20T08:21:42;7.20;99.90
76172;DHT22;64929;51.178;4.138;2023-12-20T08:24:08;7.10;99.90
76172;DHT22;64929;51.178;4.138;2023-12-20T08:26:34;7.00;99.90
76172;DHT22;64929;51.178;4.138;2023-12-20T08:28:59;7.00;99.90
76172;DHT22;64929;51.178;4.138;2023-12-20T08:31:25;7.00;99.90
76172;DHT22;64929;51.178;4.138;2023-12-20T08:33:51;7.00;99.90
76172;DHT22;64929;51.178;4.138;2023-12-20T08:36:19;7.10;99.90
76172;DHT22;64929;51.178;4.138;2023-12-20T08:38:46;7.10;99.90
76172;DHT22;64929;51.178;4.138;2023-12-20T08:41:12;7.10;99.90
76172;DHT22;64929;51.178;4.138;2023-12-20T08:43:38;7.10;99.90
76172;DHT22;64929;51.178;4.138;2023-12-20T08:46:08;7.10;99.90
76172;DHT22;64929;51.178;4.138;2023-12-20T08:48:37;7.10;99.90
76172;DHT22;64929;51.178;4.138;2023-12-20T08:51:04;7.20;99.90
76172;DHT22;64929;51.178;4.138;2023-12-20T08:53:29;7.30;99.90
76172;DHT22;64929;51.178;4.138;2023-12-20T08:55:55;7.30;99.90
76172;DHT22;64929;51.178;4.138;2023-12-20T08:58:21;7.40;99.90
76172;DHT22;64929;51.178;4.138;2023-12-20T09:00:47;7.40;99.90
76172;DHT22;64929;51.178;4.138;2023-12-20T09:03:12;7.40;99.90
76172;DHT22;64929;51.178;4.138;2023-12-20T09:05:38;7.50;99.90
76172;DHT22;64929;51.178;4.138;2023-12-20T09:08:04;7.50;99.90
76172;DHT22;64929;51.178;4.138;2023-12-20T09:10:30;7.70;99.90
76172;DHT22;64929;51.178;4.138;2023-12-20T09:12:56;7.60;99.90
76172;DHT22;64929;51.178;4.138;2023-12-20T09:15:26;7.70;99.90
76172;DHT22;64929;51.178;4.138;2023-12-20T09:17:52;7.90;99.90
76172;DHT22;64929;51.178;4.138;2023-12-20T09:20:18;7.90;99.90
76172;DHT22;64929;51.178;4.138;2023-12-20T09:22:44;8.10;99.90
76172;DHT22;64929;51.178;4.138;2023-12-20T09:25:10;8.10;99.90
76172;DHT22;64929;51.178;4.138;2023-12-20T09:27:37;8.00;99.90
76172;DHT22;64929;51.178;4.138;2023-12-20T09:30:03;8.20;99.90
76172;DHT22;64929;51.178;4.138;2023-12-20T09:32:30;8.10;99.90
76172;DHT22;64929;51.178;4.138;2023-12-20T09:34:56;8.20;99.90
76172;DHT22;64929;51.178;4.138;2023-12-20T09:37:25;8.20;99.90
76172;DHT22;64929;51.178;4.138;2023-12-20T09:39:51;8.20;99.90
76172;DHT22;64929;51.178;4.138;2023-12-20T09:42:24;8.20;99.90
76172;DHT22;64929;51.178;4.138;2023-12-20T09:44:52;8.00;99.90
76172;DHT22;64929;51.178;4.138;2023-12-20T09:47:20;8.10;99.90
76172;DHT22;64929;51.178;4.138;2023-12-20T09:49:48;8.00;99.90
76172;DHT22;64929;51.178;4.138;2023-12-20T09:52:16;8.20;99.90
76172;DHT22;64929;51.178;4.138;2023-12-20T09:54:43;8.20;99.90
76172;DHT22;64929;51.178;4.138;2023-12-20T09:57:09;8.20;99.90
76172;DHT22;64929;51.178;4.138;2023-12-20T09:59:35;8.20;99.90
76172;DHT22;64929;51.178;4.138;2023-12-20T10:02:01;8.20;99.90
76172;DHT22;64929;51.178;4.138;2023-12-20T10:04:32;8.30;99.90
76172;DHT22;64929;51.178;4.138;2023-12-20T10:07:02;8.30;99.90
76172;DHT22;64929;51.178;4.138;2023-12-20T10:09:31;8.50;99.90
76172;DHT22;64929;51.178;4.138;2023-12-20T10:11:57;8.30;99.90
76172;DHT22;64929;51.178;4.138;2023-12-20T10:14:24;8.40;99.90
76172;DHT22;64929;51.178;4.138;2023-12-20T10:16:50;8.50;99.90
76172;DHT22;64929;51.178;4.138;2023-12-20T10:19:19;8.50;99.90
76172;DHT22;64929;51.178;4.138;2023-12-20T10:21:45;8.50;99.90
76172;DHT22;64929;51.178;4.138;2023-12-20T10:24:17;8.50;99.90
76172;DHT22;64929;51.178;4.138;2023-12-20T10:26:43;8.40;99.90
76172;DHT22;64929;51.178;4.138;2023-12-20T10:29:10;8.40;99.90
76172;DHT22;64929;51.178;4.138;2023-12-20T10:31:36;8.40;99.90
76172;DHT22;64929;51.178;4.138;2023-12-20T10:34:04;8.30;99.90
76172;DHT22;64929;51.178;4.138;2023-12-20T10:36:31;8.40;99.90
76172;DHT22;64929;51.178;4.138;2023-12-20T10:38:58;8.40;99.90
76172;DHT22;64929;51.178;4.138;2023-12-20T10:41:29;8.50;99.90
76172;DHT22;64929;51.178;4.138;2023-12-20T10:44:02;8.50;99.90
76172;DHT22;64929;51.178;4.138;2023-12-20T10:46:29;8.60;99.90
76172;DHT22;64929;51.178;4.138;2023-12-20T10:48:56;8.60;99.90
76172;DHT22;64929;51.178;4.138;2023-12-20T10:51:23;8.50;99.90
76172;DHT22;64929;51.178;4.138;2023-12-20T10:53:51;8.40;99.90
76172;DHT22;64929;51.178;4.138;2023-12-20T10:56:18;8.60;99.90
76172;DHT22;64929;51.178;4.138;2023-12-20T10:58:45;8.70;99.90
76172;DHT22;64929;51.178;4.138;2023-12-20T11:01:13;8.50;99.90
76172;DHT22;64929;51.178;4.138;2023-12-20T11:03:43;8.60;99.90
76172;DHT22;64929;51.178;4.138;2023-12-20T11:06:38;8.60;99.90
76172;DHT22;64929;51.178;4.138;2023-12-20T11:09:28;8.50;99.90
76172;DHT22;64929;51.178;4.138;2023-12-20T11:17:14;8.70;99.90
76172;DHT22;64929;51.178;4.138;2023-12-20T11:22:29;8.70;99.90
76172;DHT22;64929;51.178;4.138;2023-12-20T11:25:08;8.90;99.90
76172;DHT22;64929;51.178;4.138;2023-12-20T11:27:34;8.90;99.90
76172;DHT22;64929;51.178;4.138;2023-12-20T11:30:03;8.70;99.90
76172;DHT22;64929;51.178;4.138;2023-12-20T11:32:36;8.80;99.90
76172;DHT22;64929;51.178;4.138;2023-12-20T11:37:37;8.70;99.90
76172;DHT22;64929;51.178;4.138;2023-12-20T11:40:08;8.70;99.90
76172;DHT22;64929;51.178;4.138;2023-12-20T11:42:49;8.70;99.90
76172;DHT22;64929;51.178;4.138;2023-12-20T11:45:19;8.90;99.90
76172;DHT22;64929;51.178;4.138;2023-12-20T11:47:48;8.90;99.90
76172;DHT22;64929;51.178;4.138;2023-12-20T11:50:17;8.70;99.90
76172;DHT22;64929;51.178;4.138;2023-12-20T11:52:43;9.00;99.90
76172;DHT22;64929;51.178;4.138;2023-12-20T11:55:09;9.00;99.90
76172;DHT22;64929;51.178;4.138;2023-12-20T11:57:36;9.10;99.90
76172;DHT22;64929;51.178;4.138;2023-12-20T12:00:03;9.30;99.90
76172;DHT22;64929;51.178;4.138;2023-12-20T12:02:28;9.40;99.90
76172;DHT22;64929;51.178;4.138;2023-12-20T12:04:54;9.40;99.90
76172;DHT22;64929;51.178;4.138;2023-12-20T12:07:21;9.40;99.90
76172;DHT22;64929;51.178;4.138;2023-12-20T12:09:47;9.30;99.90
76172;DHT22;64929;51.178;4.138;2023-12-20T12:12:13;9.60;99.90
76172;DHT22;64929;51.178;4.138;2023-12-20T12:14:39;9.60;99.90
76172;DHT22;64929;51.178;4.138;2023-12-20T12:17:12;9.70;99.90
76172;DHT22;64929;51.178;4.138;2023-12-20T12:19:41;9.50;99.90
76172;DHT22;64929;51.178;4.138;2023-12-20T12:22:12;9.50;99.90
76172;DHT22;64929;51.178;4.138;2023-12-20T12:24:43;9.50;99.90
76172;DHT22;64929;51.178;4.138;2023-12-20T12:27:10;9.60;99.90
76172;DHT22;64929;51.178;4.138;2023-12-20T12:29:36;9.40;99.90
76172;DHT22;64929;51.178;4.138;2023-12-20T16:47:46;8.80;99.90
76172;DHT22;64929;51.178;4.138;2023-12-20T16:50:12;8.90;99.90
76172;DHT22;64929;51.178;4.138;2023-12-20T16:52:37;9.00;99.90
76172;DHT22;64929;51.178;4.138;2023-12-20T16:55:09;9.20;99.90
76172;DHT22;64929;51.178;4.138;2023-12-20T16:57:35;9.40;99.90
76172;DHT22;64929;51.178;4.138;2023-12-20T17:00:01;9.50;99.90
76172;DHT22;64929;51.178;4.138;2023-12-20T17:02:27;9.50;99.90
76172;DHT22;64929;51.178;4.138;2023-12-20T17:04:53;9.50;99.90
76172;DHT22;64929;51.178;4.138;2023-12-20T17:07:19;9.40;99.90
76172;DHT22;64929;51.178;4.138;2023-12-20T17:09:44;9.50;99.90
76172;DHT22;64929;51.178;4.138;2023-12-20T17:12:15;9.50;99.90
76172;DHT22;64929;51.178;4.138;2023-12-20T17:14:40;9.70;99.90
76172;DHT22;64929;51.178;4.138;2023-12-20T17:17:06;9.60;99.90
76172;DHT22;64929;51.178;4.138;2023-12-20T17:19:34;9.60;99.90
76172;DHT22;64929;51.178;4.138;2023-12-20T17:21:59;9.60;99.90
76172;DHT22;64929;51.178;4.138;2023-12-20T17:24:26;9.50;99.90
76172;DHT22;64929;51.178;4.138;2023-12-20T17:26:52;9.50;99.90
76172;DHT22;64929;51.178;4.138;2023-12-20T17:29:18;9.60;99.90
76172;DHT22;64929;51.178;4.138;2023-12-20T17:31:43;9.70;99.90
76172;DHT22;64929;51.178;4.138;2023-12-20T17:34:09;9.80;99.90
76172;DHT22;64929;51.178;4.138;2023-12-20T17:36:37;9.70;99.90
76172;DHT22;64929;51.178;4.138;2023-12-20T17:39:03;9.90;99.90
76172;DHT22;64929;51.178;4.138;2023-12-20T17:41:30;9.90;99.90
76172;DHT22;64929;51.178;4.138;2023-12-20T17:43:56;9.80;99.90
76172;DHT22;64929;51.178;4.138;2023-12-20T17:46:21;9.80;99.90
76172;DHT22;64929;51.178;4.138;2023-12-20T17:48:47;9.70;99.90
76172;DHT22;64929;51.178;4.138;2023-12-20T17:51:13;9.70;99.90
76172;DHT22;64929;51.178;4.138;2023-12-20T17:53:40;9.70;99.90
76172;DHT22;64929;51.178;4.138;2023-12-20T17:56:06;9.70;99.90
76172;DHT22;64929;51.178;4.138;2023-12-20T17:58:31;9.70;99.90
76172;DHT22;64929;51.178;4.138;2023-12-20T18:00:58;9.70;99.90
76172;DHT22;64929;51.178;4.138;2023-12-20T18:03:24;9.60;99.90
76172;DHT22;64929;51.178;4.138;2023-12-20T18:05:50;9.60;99.90
76172;DHT22;64929;51.178;4.138;2023-12-20T18:08:16;9.70;99.90
76172;DHT22;64929;51.178;4.138;2023-12-20T18:10:42;9.70;99.90
76172;DHT22;64929;51.178;4.138;2023-12-20T18:13:07;9.80;99.90
76172;DHT22;64929;51.178;4.138;2023-12-20T18:15:33;9.70;99.90
76172;DHT22;64929;51.178;4.138;2023-12-20T18:17:59;9.70;99.90
76172;DHT22;64929;51.178;4.138;2023-12-20T18:20:25;9.70;99.90
76172;DHT22;64929;51.178;4.138;2023-12-20T18:22:50;9.80;99.90
76172;DHT22;64929;51.178;4.138;2023-12-20T18:25:16;9.80;99.90
76172;DHT22;64929;51.178;4.138;2023-12-20T18:27:41;9.80;99.90
76172;DHT22;64929;51.178;4.138;2023-12-20T18:30:07;9.70;99.90
76172;DHT22;64929;51.178;4.138;2023-12-20T18:32:34;9.80;99.90
76172;DHT22;64929;51.178;4.138;2023-12-20T18:35:00;10.00;99.90
76172;DHT22;64929;51.178;4.138;2023-12-20T18:37:27;10.00;99.90
76172;DHT22;64929;51.178;4.138;2023-12-20T18:39:53;10.10;99.90
76172;DHT22;64929;51.178;4.138;2023-12-20T18:42:20;9.90;99.90
76172;DHT22;64929;51.178;4.138;2023-12-20T18:44:46;10.00;99.90
76172;DHT22;64929;51.178;4.138;2023-12-20T18:47:11;10.00;99.90
76172;DHT22;64929;51.178;4.138;2023-12-20T18:49:37;10.00;99.90
76172;DHT22;64929;51.178;4.138;2023-12-20T18:52:03;10.00;99.90
76172;DHT22;64929;51.178;4.138;2023-12-20T18:54:31;9.90;99.90
76172;DHT22;64929;51.178;4.138;2023-12-20T18:56:57;9.90;99.90
76172;DHT22;64929;51.178;4.138;2023-12-20T18:59:23;10.00;99.90
76172;DHT22;64929;51.178;4.138;2023-12-20T19:01:49;10.00;99.90
76172;DHT22;64929;51.178;4.138;2023-12-20T19:04:16;10.00;99.90
76172;DHT22;64929;51.178;4.138;2023-12-20T19:06:42;10.00;99.90
76172;DHT22;64929;51.178;4.138;2023-12-20T19:09:07;10.10;99.90
76172;DHT22;64929;51.178;4.138;2023-12-20T19:11:33;10.10;99.90
76172;DHT22;64929;51.178;4.138;2023-12-20T19:14:01;10.20;99.90
76172;DHT22;64929;51.178;4.138;2023-12-20T19:16:27;10.20;99.90
76172;DHT22;64929;51.178;4.138;2023-12-20T19:18:53;10.20;99.90
76172;DHT22;64929;51.178;4.138;2023-12-20T19:21:18;10.20;99.90
76172;DHT22;64929;51.178;4.138;2023-12-20T19:23:45;10.00;99.90
76172;DHT22;64929;51.178;4.138;2023-12-20T19:26:11;10.10;99.90
76172;DHT22;64929;51.178;4.138;2023-12-20T19:28:38;10.20;99.90
76172;DHT22;64929;51.178;4.138;2023-12-20T19:31:05;10.10;99.90
76172;DHT22;64929;51.178;4.138;2023-12-20T19:33:38;10.10;99.90
76172;DHT22;64929;51.178;4.138;2023-12-20T19:36:08;10.10;99.90
76172;DHT22;64929;51.178;4.138;2023-12-20T19:38:35;10.00;99.90
76172;DHT22;64929;51.178;4.138;2023-12-20T19:41:01;9.90;99.90
76172;DHT22;64929;51.178;4.138;2023-12-20T19:43:27;9.90;99.90
76172;DHT22;64929;51.178;4.138;2023-12-20T19:45:53;10.00;99.90
76172;DHT22;64929;51.178;4.138;2023-12-20T19:48:19;10.00;99.90
76172;DHT22;64929;51.178;4.138;2023-12-20T19:50:44;10.00;99.90
76172;DHT22;64929;51.178;4.138;2023-12-20T19:53:14;9.90;99.90
76172;DHT22;64929;51.178;4.138;2023-12-20T19:55:39;10.00;99.90
76172;DHT22;64929;51.178;4.138;2023-12-20T19:58:06;10.00;99.90
76172;DHT22;64929;51.178;4.138;2023-12-20T20:00:32;10.10;99.90
76172;DHT22;64929;51.178;4.138;2023-12-20T20:02:58;9.90;99.90
76172;DHT22;64929;51.178;4.138;2023-12-20T20:05:24;10.10;99.90